Hachinohe Airport


Codes: RJSH/HHE
Name: Hachinohe Airport
City:
Country: Japan
Elevation: 152 ft.

Photos at Hachinohe Airport


   Photos courtesy of SpottingLog. You can add your own sightings and photos by signing up for a free trial today.



No photos found.

Weather at Hachinohe Airport


Time (UTC)DescriptionTempratureWindCloud coverageVisibilityPressureHumidity
19-Apr-2024 06:00Light Rain12°C7 mph, N99%10000m1004hPa77%
19-Apr-2024 09:00Overcast Clouds11°C7 mph, NW93%10000m1004hPa79%
19-Apr-2024 12:00Broken Clouds9°C11 mph, W63%10000m1005hPa78%
19-Apr-2024 15:00Scattered Clouds8°C16 mph, W33%10000m1006hPa80%
19-Apr-2024 18:00Scattered Clouds8°C13 mph, W46%10000m1006hPa82%
19-Apr-2024 21:00Scattered Clouds8°C13 mph, W26%10000m1008hPa79%
20-Apr-2024 00:00Few Clouds12°C18 mph, W16%10000m1009hPa64%
20-Apr-2024 03:00Broken Clouds13°C20 mph, W54%10000m1009hPa54%
20-Apr-2024 06:00Scattered Clouds14°C16 mph, W30%10000m1010hPa48%
20-Apr-2024 09:00Broken Clouds10°C13 mph, W68%10000m1013hPa59%
20-Apr-2024 12:00Broken Clouds8°C11 mph, W84%10000m1014hPa68%
20-Apr-2024 15:00Overcast Clouds7°C9 mph, W100%10000m1014hPa71%
20-Apr-2024 18:00Overcast Clouds6°C7 mph, SW95%10000m1014hPa81%
20-Apr-2024 21:00Overcast Clouds7°C4 mph, SW100%10000m1014hPa78%
21-Apr-2024 00:00Overcast Clouds12°C2 mph, NW100%10000m1015hPa54%
21-Apr-2024 03:00Overcast Clouds14°C9 mph, NE97%10000m1014hPa51%
21-Apr-2024 06:00Broken Clouds13°C9 mph, NE81%10000m1013hPa53%
21-Apr-2024 09:00Scattered Clouds10°C4 mph, E33%10000m1014hPa75%
21-Apr-2024 12:00Few Clouds8°C4 mph, E23%10000m1015hPa81%
21-Apr-2024 15:00Clear Sky7°C2 mph, NE1%10000m1015hPa86%
21-Apr-2024 18:00Clear Sky6°C4 mph, NE1%10000m1016hPa90%
21-Apr-2024 21:00Scattered Clouds7°C7 mph, N34%10000m1017hPa86%
22-Apr-2024 00:00Scattered Clouds10°C4 mph, NE49%10000m1018hPa67%
22-Apr-2024 03:00Clear Sky11°C9 mph, NE6%10000m1017hPa65%
22-Apr-2024 06:00Clear Sky11°C7 mph, NE7%10000m1017hPa64%
22-Apr-2024 09:00Clear Sky9°C4 mph, E0%10000m1019hPa74%
22-Apr-2024 12:00Clear Sky7°C2 mph, E0%10000m1021hPa82%
22-Apr-2024 15:00Clear Sky7°C2 mph, SE1%10000m1021hPa88%
22-Apr-2024 18:00Clear Sky6°C4 mph, SE5%10000m1021hPa92%
22-Apr-2024 21:00Scattered Clouds7°C7 mph, SE44%10000m1022hPa85%
23-Apr-2024 00:00Broken Clouds10°C11 mph, E69%10000m1023hPa69%
23-Apr-2024 03:00Overcast Clouds11°C16 mph, E95%10000m1022hPa65%
23-Apr-2024 06:00Overcast Clouds10°C16 mph, E97%10000m1021hPa74%
23-Apr-2024 09:00Overcast Clouds9°C13 mph, SE98%10000m1020hPa81%
23-Apr-2024 12:00Overcast Clouds8°C13 mph, SE99%10000m1021hPa86%
23-Apr-2024 15:00Overcast Clouds8°C11 mph, SE100%10000m1019hPa88%
23-Apr-2024 18:00Overcast Clouds9°C11 mph, SE100%10000m1016hPa89%
23-Apr-2024 21:00Overcast Clouds9°C11 mph, SE100%10000m1015hPa89%
24-Apr-2024 00:00Light Rain10°C11 mph, SE100%7014m1014hPa92%
24-Apr-2024 03:00Moderate Rain10°C13 mph, SE100%10000m1011hPa93%